createdAt,value
2019-06-27T00:01:27.931Z,20.86
2019-06-27T00:03:56.496Z,20.74
2019-06-27T00:06:25.076Z,21.05
2019-06-27T00:08:53.709Z,20.24
2019-06-27T00:11:22.298Z,21.01
2019-06-27T00:13:50.888Z,20.66
2019-06-27T00:16:19.490Z,20.60
2019-06-27T00:18:48.082Z,20.10
2019-06-27T00:21:16.671Z,20.48
2019-06-27T00:23:45.967Z,20.07
2019-06-27T00:26:14.621Z,20.28
2019-06-27T00:28:43.220Z,20.20
2019-06-27T00:31:11.824Z,19.93
2019-06-27T00:33:40.491Z,19.82
2019-06-27T00:36:09.070Z,19.60
2019-06-27T00:38:37.685Z,19.78
2019-06-27T00:41:06.274Z,19.54
2019-06-27T00:43:34.896Z,19.89
2019-06-27T00:46:03.477Z,19.19
2019-06-27T00:48:32.113Z,19.17
2019-06-27T00:51:00.709Z,19.56
2019-06-27T00:53:29.365Z,19.12
2019-06-27T00:55:57.966Z,19.24
2019-06-27T00:58:26.620Z,19.34
2019-06-27T01:00:55.204Z,18.85
2019-06-27T01:03:23.810Z,19.09
2019-06-27T01:05:52.398Z,18.92
2019-06-27T01:08:21.017Z,18.94
2019-06-27T01:10:49.605Z,18.95
2019-06-27T01:13:18.313Z,18.60
2019-06-27T01:15:46.900Z,19.08
2019-06-27T01:18:15.488Z,18.32
2019-06-27T01:20:44.147Z,18.66
2019-06-27T01:23:12.862Z,18.59
2019-06-27T01:25:41.430Z,18.52
2019-06-27T01:28:10.080Z,17.95
2019-06-27T01:30:38.696Z,18.64
2019-06-27T01:33:07.343Z,18.10
2019-06-27T01:35:35.905Z,18.34
2019-06-27T01:38:04.614Z,18.20
2019-06-27T01:40:33.204Z,18.20
2019-06-27T01:43:01.913Z,18.21
2019-06-27T01:45:37.793Z,18.26
2019-06-27T01:48:06.555Z,17.93
2019-06-27T01:50:35.304Z,17.68
2019-06-27T01:53:04.034Z,17.66
2019-06-27T01:55:32.601Z,17.76
2019-06-27T01:58:01.294Z,17.69
2019-06-27T02:00:29.992Z,17.35
2019-06-27T02:02:58.744Z,17.79
2019-06-27T02:05:27.305Z,17.62
2019-06-27T02:07:56.043Z,17.70
2019-06-27T02:10:24.669Z,17.41
2019-06-27T02:12:53.420Z,17.68
2019-06-27T02:15:22.551Z,17.83
2019-06-27T02:17:51.152Z,17.65
2019-06-27T02:20:19.860Z,17.39
2019-06-27T02:22:48.495Z,17.52
2019-06-27T02:25:17.812Z,17.36
2019-06-27T02:28:02.147Z,17.26
2019-06-27T02:30:19.939Z,17.30
2019-06-27T02:32:48.578Z,17.40
2019-06-27T02:35:17.344Z,17.28
2019-06-27T02:37:46.071Z,16.97
2019-06-27T02:40:14.637Z,17.29
2019-06-27T02:42:43.297Z,16.94
2019-06-27T02:45:12.237Z,16.92
2019-06-27T02:47:40.878Z,16.80
2019-06-27T02:50:09.506Z,16.98
2019-06-27T02:52:38.158Z,16.87
2019-06-27T02:55:06.820Z,16.80
2019-06-27T02:57:35.510Z,16.66
2019-06-27T03:00:06.019Z,16.73
2019-06-27T03:02:34.632Z,16.73
2019-06-27T03:05:04.847Z,17.40
2019-06-27T03:07:33.484Z,16.39
2019-06-27T03:10:02.155Z,17.03
2019-06-27T03:12:31.030Z,16.57
2019-06-27T03:14:59.640Z,16.65
2019-06-27T03:17:28.337Z,16.27
2019-06-27T03:19:56.895Z,16.59
2019-06-27T03:22:25.571Z,16.64
2019-06-27T03:24:54.155Z,16.60
2019-06-27T03:27:22.784Z,16.57
2019-06-27T03:29:51.369Z,16.45
2019-06-27T03:32:20.075Z,16.45
2019-06-27T03:34:48.641Z,16.70
2019-06-27T03:37:17.251Z,16.18
2019-06-27T03:39:45.906Z,16.25
2019-06-27T03:42:14.489Z,16.46
2019-06-27T03:44:43.109Z,16.38
2019-06-27T03:47:11.729Z,15.82
2019-06-27T03:49:40.315Z,16.30
2019-06-27T03:52:08.965Z,16.31
2019-06-27T03:54:37.563Z,16.32
2019-06-27T03:57:06.166Z,16.55
2019-06-27T03:59:34.780Z,16.39
2019-06-27T04:02:03.432Z,16.28
2019-06-27T04:04:32.067Z,16.56
2019-06-27T04:07:00.655Z,16.84
2019-06-27T04:09:29.244Z,16.63
2019-06-27T04:11:57.808Z,16.55
2019-06-27T04:14:26.458Z,17.10
2019-06-27T04:16:55.017Z,16.50
2019-06-27T04:19:23.663Z,16.66
2019-06-27T04:21:52.242Z,16.33
2019-06-27T04:24:20.828Z,16.59
2019-06-27T04:26:49.521Z,16.31
2019-06-27T04:29:32.768Z,16.64
2019-06-27T04:31:48.426Z,16.37
2019-06-27T04:34:19.924Z,16.23
2019-06-27T04:36:47.382Z,16.63
2019-06-27T04:39:16.010Z,16.29
2019-06-27T04:41:44.640Z,16.33
2019-06-27T04:44:13.289Z,16.45
2019-06-27T04:46:42.294Z,16.74
2019-06-27T04:49:13.593Z,16.36
2019-06-27T04:51:41.285Z,16.29
2019-06-27T04:54:09.958Z,16.05
2019-06-27T04:56:38.563Z,16.43
2019-06-27T04:59:07.175Z,16.04
2019-06-27T05:01:35.742Z,17.89
2019-06-27T05:04:04.351Z,16.37
2019-06-27T05:06:32.980Z,17.09
2019-06-27T05:09:01.616Z,17.46
2019-06-27T05:11:30.195Z,17.43
2019-06-27T05:13:58.824Z,17.63
2019-06-27T05:16:27.380Z,17.34
2019-06-27T05:18:55.992Z,17.70
2019-06-27T05:21:24.553Z,18.14
2019-06-27T05:23:53.156Z,16.42
2019-06-27T05:26:21.720Z,17.34
2019-06-27T05:28:50.354Z,17.47
2019-06-27T05:31:18.907Z,17.63
2019-06-27T05:33:47.630Z,16.39
2019-06-27T05:36:16.200Z,17.10
2019-06-27T05:38:45.586Z,17.26
2019-06-27T05:41:14.170Z,18.45
2019-06-27T05:43:42.790Z,17.35
2019-06-27T05:46:11.353Z,17.21
2019-06-27T05:48:40.020Z,17.56
2019-06-27T05:51:08.556Z,17.75
2019-06-27T05:53:37.196Z,17.12
2019-06-27T05:56:05.822Z,16.67
2019-06-27T06:40:10.099Z,19.11
2019-06-27T06:42:38.926Z,18.84
2019-06-27T06:45:08.021Z,18.08
2019-06-27T06:47:36.589Z,17.99
2019-06-27T06:50:06.490Z,18.66
2019-06-27T06:52:35.065Z,18.01
2019-06-27T06:55:05.150Z,17.93
2019-06-27T06:57:33.724Z,18.75
2019-06-27T07:00:02.270Z,18.63
2019-06-27T07:02:30.846Z,18.48
2019-06-27T07:04:59.355Z,18.49
2019-06-27T07:07:27.913Z,18.46
2019-06-27T07:09:56.426Z,18.24
2019-06-27T07:12:24.976Z,18.43
2019-06-27T07:14:53.502Z,18.52
2019-06-27T07:17:24.527Z,18.75
2019-06-27T07:19:53.021Z,18.65
2019-06-27T07:22:21.518Z,18.43
2019-06-27T07:24:49.998Z,19.43
2019-06-27T07:27:18.544Z,18.67
2019-06-27T07:29:47.083Z,18.05
2019-06-27T07:32:15.999Z,17.83
2019-06-27T07:34:45.069Z,18.31
2019-06-27T07:37:13.581Z,18.53
2019-06-27T07:39:42.141Z,18.38
2019-06-27T07:42:10.615Z,18.11
2019-06-27T07:44:39.134Z,18.45
2019-06-27T07:47:07.661Z,18.43
2019-06-27T07:49:36.221Z,18.91
2019-06-27T07:52:04.704Z,18.62
2019-06-27T07:54:33.257Z,18.37
2019-06-27T07:57:01.786Z,18.97
2019-06-27T07:59:30.337Z,18.80
2019-06-27T08:01:58.840Z,18.42
2019-06-27T08:04:28.004Z,18.65
2019-06-27T08:06:56.840Z,18.80
2019-06-27T08:09:25.349Z,18.61
2019-06-27T08:11:53.912Z,17.87
2019-06-27T08:14:22.530Z,19.04
2019-06-27T08:16:51.527Z,18.42
2019-06-27T08:19:20.010Z,18.85
2019-06-27T08:21:48.535Z,18.58
2019-06-27T08:24:17.098Z,18.76
2019-06-27T08:26:45.624Z,18.84
2019-06-27T08:29:14.211Z,18.58
2019-06-27T08:31:51.368Z,18.81
2019-06-27T08:34:13.036Z,19.19
2019-06-27T08:36:41.512Z,18.92
2019-06-27T08:39:10.371Z,19.09
2019-06-27T08:41:38.884Z,19.25
2019-06-27T08:44:09.502Z,19.45
2019-06-27T08:46:37.958Z,19.49
2019-06-27T08:49:06.513Z,19.25
2019-06-27T08:51:34.989Z,19.79
2019-06-27T08:54:03.493Z,19.47
2019-06-27T08:56:33.523Z,19.29
2019-06-27T08:59:02.111Z,19.56
2019-06-27T09:01:30.603Z,19.55
2019-06-27T09:03:59.199Z,19.70
2019-06-27T09:06:27.651Z,19.93
2019-06-27T09:08:56.205Z,19.83
2019-06-27T09:11:24.706Z,19.72
2019-06-27T09:13:53.230Z,19.65
2019-06-27T09:16:21.736Z,19.95
2019-06-27T09:18:50.203Z,19.26
2019-06-27T09:21:18.703Z,19.60
2019-06-27T09:23:47.225Z,19.75
2019-06-27T09:26:15.726Z,20.07
2019-06-27T09:28:44.676Z,20.20
2019-06-27T09:31:13.194Z,19.93
2019-06-27T09:33:41.860Z,19.95
2019-06-27T09:36:10.376Z,20.22
2019-06-27T09:38:38.930Z,20.11
2019-06-27T09:41:07.438Z,20.36
2019-06-27T09:43:35.985Z,20.26
2019-06-27T09:46:04.442Z,20.47
2019-06-27T09:48:33.370Z,20.77
2019-06-27T09:51:01.895Z,20.16
2019-06-27T09:53:30.522Z,20.77
2019-06-27T09:55:59.002Z,20.54
2019-06-27T09:58:27.955Z,21.10
2019-06-27T10:00:57.230Z,21.31
2019-06-27T10:03:25.866Z,20.88
2019-06-27T10:05:54.347Z,21.32
2019-06-27T10:08:22.879Z,21.52
2019-06-27T10:10:51.377Z,21.30
2019-06-27T10:13:19.916Z,21.71
2019-06-27T10:15:48.408Z,21.73
2019-06-27T10:18:16.963Z,22.46
2019-06-27T10:20:45.479Z,22.00
2019-06-27T10:23:15.147Z,22.26
2019-06-27T10:25:43.976Z,22.12
2019-06-27T10:28:12.823Z,22.66
2019-06-27T10:30:41.342Z,22.13
2019-06-27T10:33:09.887Z,22.22
2019-06-27T10:35:38.374Z,22.45
2019-06-27T10:38:06.960Z,22.74
2019-06-27T10:40:35.739Z,22.65
2019-06-27T10:43:04.666Z,22.15
2019-06-27T10:45:33.185Z,22.56
2019-06-27T10:48:01.735Z,22.69
2019-06-27T10:50:30.201Z,22.96
2019-06-27T10:52:58.677Z,22.79
2019-06-27T10:55:27.978Z,22.73
2019-06-27T10:57:56.500Z,22.22
2019-06-27T11:00:25.087Z,22.23
2019-06-27T11:02:53.948Z,22.20
2019-06-27T11:05:22.491Z,22.27
2019-06-27T11:07:51.079Z,23.07
2019-06-27T11:10:19.577Z,23.23
2019-06-27T11:12:48.138Z,23.02
2019-06-27T11:15:17.826Z,23.00
2019-06-27T11:17:46.336Z,22.85
2019-06-27T11:20:15.971Z,22.62
2019-06-27T11:22:44.569Z,22.79
2019-06-27T11:25:13.313Z,22.74
2019-06-27T11:27:41.831Z,22.86
2019-06-27T11:30:10.941Z,22.84
2019-06-27T11:32:40.666Z,23.29
2019-06-27T11:35:09.573Z,23.23
2019-06-27T11:37:38.139Z,23.16
2019-06-27T11:40:11.746Z,23.70
2019-06-27T11:42:38.535Z,23.28
2019-06-27T11:45:08.138Z,23.18
2019-06-27T11:47:38.302Z,23.34
2019-06-27T11:50:07.084Z,23.38
2019-06-27T11:52:36.265Z,23.20
2019-06-27T11:55:05.225Z,22.94
2019-06-27T11:57:33.781Z,23.08
2019-06-27T12:00:02.705Z,23.52
2019-06-27T12:02:31.207Z,23.23
2019-06-27T12:04:59.751Z,22.87
2019-06-27T12:07:28.218Z,23.20
2019-06-27T12:09:56.769Z,23.17
2019-06-27T12:12:25.306Z,23.21
2019-06-27T12:14:53.884Z,23.10
2019-06-27T12:17:22.378Z,23.00
2019-06-27T12:19:51.348Z,23.53
2019-06-27T12:22:19.842Z,23.48
2019-06-27T12:24:48.491Z,23.79
2019-06-27T12:27:18.585Z,23.54
2019-06-27T12:29:47.082Z,23.63
2019-06-27T12:32:15.573Z,23.31
2019-06-27T12:34:44.177Z,23.41
2019-06-27T12:37:12.733Z,23.62
2019-06-27T12:39:41.322Z,24.01
2019-06-27T12:42:09.829Z,24.19
2019-06-27T12:44:38.667Z,24.12
2019-06-27T12:47:07.172Z,23.58
2019-06-27T12:49:50.036Z,23.71
2019-06-27T12:52:05.947Z,23.73
2019-06-27T12:54:35.486Z,24.00
2019-06-27T12:57:04.043Z,24.33
2019-06-27T12:59:32.581Z,24.00
2019-06-27T13:02:01.094Z,24.38
2019-06-27T13:04:29.682Z,24.19
2019-06-27T13:06:59.645Z,24.54
2019-06-27T13:09:29.483Z,24.57
2019-06-27T13:11:58.062Z,23.76
2019-06-27T13:14:26.569Z,24.19
2019-06-27T13:16:55.043Z,24.51
2019-06-27T13:19:23.566Z,24.20
2019-06-27T13:21:52.042Z,24.24
2019-06-27T13:24:20.565Z,24.09
2019-06-27T13:26:51.011Z,24.46
2019-06-27T13:29:19.553Z,24.86
2019-06-27T13:31:48.035Z,24.38
2019-06-27T13:34:16.625Z,24.61
2019-06-27T13:36:45.073Z,24.66
2019-06-27T13:39:13.651Z,24.57
2019-06-27T13:41:42.158Z,24.39
2019-06-27T13:44:10.661Z,24.58
2019-06-27T13:46:39.146Z,24.48
2019-06-27T13:49:07.759Z,24.49
2019-06-27T13:51:36.269Z,24.19
2019-06-27T13:54:04.842Z,24.60
2019-06-27T13:56:33.377Z,24.45
2019-06-27T13:59:01.941Z,24.68
2019-06-27T14:01:30.501Z,24.71
2019-06-27T14:03:58.994Z,24.68
2019-06-27T14:06:27.536Z,24.96
2019-06-27T14:08:56.042Z,25.01
2019-06-27T14:11:24.919Z,24.97
2019-06-27T14:13:54.501Z,24.94
2019-06-27T14:16:23.022Z,24.63
2019-06-27T14:18:51.594Z,24.66
2019-06-27T14:21:20.121Z,24.99
2019-06-27T14:23:48.677Z,24.75
2019-06-27T14:26:17.598Z,24.88
2019-06-27T14:28:46.132Z,25.31
2019-06-27T14:31:14.577Z,25.23
2019-06-27T14:33:43.166Z,25.25
2019-06-27T14:36:11.717Z,25.24
2019-06-27T14:38:40.266Z,25.58
2019-06-27T14:41:08.767Z,25.43
2019-06-27T14:43:38.051Z,25.21
2019-06-27T14:46:06.611Z,24.71
2019-06-27T14:48:35.152Z,25.23
2019-06-27T14:51:03.638Z,25.21
2019-06-27T14:53:32.158Z,25.02
2019-06-27T14:56:00.649Z,24.98
2019-06-27T14:58:33.111Z,24.88
2019-06-27T15:00:59.324Z,24.81
2019-06-27T15:03:27.803Z,24.81
2019-06-27T15:05:59.493Z,25.17
2019-06-27T15:08:26.574Z,24.93
2019-06-27T15:10:55.100Z,24.74
2019-06-27T15:13:26.516Z,25.13
2019-06-27T15:16:10.635Z,24.73
2019-06-27T15:18:25.249Z,25.02
2019-06-27T15:20:53.727Z,25.08
2019-06-27T15:23:22.266Z,24.91
2019-06-27T15:25:50.727Z,25.07
2019-06-27T15:28:19.280Z,24.70
2019-06-27T15:30:48.206Z,24.78
2019-06-27T15:33:17.325Z,25.01
2019-06-27T15:35:52.232Z,25.06
2019-06-27T15:38:19.032Z,24.82
2019-06-27T15:40:47.616Z,24.76
2019-06-27T15:43:16.106Z,24.61
2019-06-27T15:45:44.682Z,24.54
2019-06-27T15:48:13.188Z,24.79
2019-06-27T15:50:41.729Z,24.78
2019-06-27T15:53:10.311Z,24.59
2019-06-27T15:55:38.854Z,24.39
2019-06-27T15:58:07.370Z,24.48
2019-06-27T16:00:39.459Z,24.56
2019-06-27T16:03:06.832Z,24.77
2019-06-27T16:05:35.484Z,24.59
2019-06-27T16:08:04.042Z,24.33
2019-06-27T16:10:32.878Z,24.44
2019-06-27T16:13:02.845Z,24.39
2019-06-27T16:15:31.698Z,24.42
2019-06-27T16:18:00.165Z,24.32
2019-06-27T16:20:28.760Z,24.34
2019-06-27T16:22:57.396Z,24.66
2019-06-27T16:25:25.987Z,24.44
2019-06-27T16:27:54.502Z,24.25
2019-06-27T16:30:25.122Z,24.13
2019-06-27T16:32:56.555Z,24.07
2019-06-27T16:35:25.165Z,24.12
2019-06-27T16:37:53.677Z,23.93
2019-06-27T16:40:22.309Z,24.07
2019-06-27T16:42:51.330Z,23.71
2019-06-27T16:45:20.915Z,23.85
2019-06-27T16:47:49.420Z,24.00
2019-06-27T16:50:18.941Z,23.83
2019-06-27T16:52:47.433Z,23.70
2019-06-27T16:55:16.010Z,23.68
2019-06-27T16:57:44.474Z,23.63
2019-06-27T17:00:13.142Z,23.61
2019-06-27T17:02:41.725Z,23.59
2019-06-27T17:05:10.341Z,23.64
2019-06-27T17:07:38.839Z,23.67
2019-06-27T17:10:09.274Z,23.28
2019-06-27T17:12:40.839Z,23.17
2019-06-27T17:15:09.923Z,23.23
2019-06-27T17:17:38.438Z,23.21
2019-06-27T17:20:07.685Z,22.91
2019-06-27T17:22:36.235Z,23.16
2019-06-27T17:25:06.441Z,23.10
2019-06-27T17:27:35.296Z,23.07
2019-06-27T17:30:06.034Z,23.04
2019-06-27T17:32:34.544Z,23.01
2019-06-27T17:35:03.283Z,22.85
2019-06-27T17:37:32.174Z,22.70
2019-06-27T17:40:00.753Z,22.71
2019-06-27T17:42:29.237Z,22.74
2019-06-27T17:44:57.804Z,22.76
2019-06-27T17:47:26.357Z,22.73
2019-06-27T17:49:56.739Z,22.77
2019-06-27T17:52:31.294Z,22.65
2019-06-27T17:55:01.515Z,22.52
2019-06-27T17:57:30.070Z,22.38
2019-06-27T17:59:58.568Z,22.32
2019-06-27T18:02:27.218Z,22.24
2019-06-27T18:04:55.693Z,22.20
2019-06-27T18:07:24.203Z,22.15
2019-06-27T18:09:52.803Z,22.12
2019-06-27T18:12:21.366Z,22.00
2019-06-27T18:14:49.900Z,21.90
2019-06-27T18:17:32.382Z,21.83
2019-06-27T18:19:48.913Z,21.68
2019-06-27T18:22:17.729Z,21.45
2019-06-27T18:24:46.250Z,21.60
2019-06-27T18:27:14.723Z,21.46
2019-06-27T18:29:43.280Z,21.55
2019-06-27T18:32:11.777Z,21.34
2019-06-27T18:34:48.237Z,21.35
2019-06-27T18:37:29.137Z,21.27
2019-06-27T18:39:53.215Z,20.92
2019-06-27T18:42:24.608Z,20.96
2019-06-27T18:44:53.122Z,20.89
2019-06-27T18:47:24.452Z,20.96
2019-06-27T18:49:53.954Z,20.93
2019-06-27T18:52:22.523Z,20.77
2019-06-27T18:54:51.064Z,20.80
2019-06-27T18:57:19.588Z,21.02
2019-06-27T18:59:48.143Z,20.67
2019-06-27T19:02:16.622Z,20.36
2019-06-27T19:04:45.220Z,20.49
2019-06-27T19:07:13.690Z,20.42
2019-06-27T19:09:42.219Z,20.43
2019-06-27T19:12:11.369Z,20.34
2019-06-27T19:14:39.897Z,20.42
2019-06-27T19:17:08.404Z,20.34
2019-06-27T19:19:38.557Z,20.17
2019-06-27T19:22:08.669Z,20.30
2019-06-27T19:24:38.858Z,20.11
2019-06-27T19:27:07.450Z,20.17
2019-06-27T19:29:35.928Z,20.01
2019-06-27T19:32:04.401Z,19.85
2019-06-27T19:34:32.922Z,19.85
2019-06-27T19:37:01.445Z,19.84
2019-06-27T19:39:30.281Z,19.77
2019-06-27T19:41:58.746Z,19.53
2019-06-27T19:44:27.279Z,19.73
2019-06-27T19:46:55.782Z,19.65
2019-06-27T19:49:24.318Z,19.62
2019-06-27T19:51:52.824Z,19.65
2019-06-27T19:54:21.367Z,19.38
2019-06-27T19:56:49.876Z,19.35
2019-06-27T19:59:25.000Z,19.24
2019-06-27T20:01:51.697Z,19.40
2019-06-27T20:04:41.391Z,19.21
2019-06-27T20:07:11.833Z,19.19
2019-06-27T20:09:40.342Z,19.16
2019-06-27T20:12:08.932Z,19.26
2019-06-27T20:14:37.443Z,19.47
2019-06-27T20:17:06.135Z,19.21
2019-06-27T20:19:34.652Z,18.95
2019-06-27T20:22:03.187Z,19.02
2019-06-27T20:24:33.149Z,19.04
2019-06-27T20:27:01.711Z,19.13
2019-06-27T20:29:30.905Z,19.05
2019-06-27T20:31:59.672Z,18.67
2019-06-27T20:34:28.113Z,18.81
2019-06-27T20:36:56.764Z,18.65
2019-06-27T20:39:25.226Z,18.50
2019-06-27T20:41:54.113Z,18.39
2019-06-27T20:44:24.853Z,18.44
2019-06-27T20:46:53.498Z,18.45
2019-06-27T20:49:21.965Z,18.74
2019-06-27T20:51:51.583Z,18.36
2019-06-27T20:54:20.200Z,18.27
2019-06-27T20:56:48.797Z,18.21
2019-06-27T20:59:17.307Z,18.43
2019-06-27T21:01:45.843Z,18.06
2019-06-27T21:04:14.354Z,18.03
2019-06-27T21:06:42.869Z,18.06
2019-06-27T21:09:11.422Z,17.90
2019-06-27T21:11:39.963Z,18.21
2019-06-27T21:14:08.429Z,17.89
2019-06-27T21:16:36.928Z,18.14
2019-06-27T21:19:05.437Z,18.24
2019-06-27T21:21:34.038Z,18.02
2019-06-27T21:24:02.617Z,18.05
2019-06-27T21:26:31.211Z,17.89
2019-06-27T21:28:59.692Z,17.98
2019-06-27T21:31:28.265Z,17.97
2019-06-27T21:33:56.749Z,17.68
2019-06-27T21:36:25.292Z,17.85
2019-06-27T21:39:07.205Z,18.06
2019-06-27T21:41:24.244Z,17.66
2019-06-27T21:43:52.812Z,17.62
2019-06-27T21:46:21.376Z,17.60
2019-06-27T21:48:49.899Z,17.44
2019-06-27T21:51:18.452Z,17.40
2019-06-27T21:53:46.950Z,17.56
2019-06-27T21:56:15.512Z,17.19
2019-06-27T21:58:44.036Z,17.27
2019-06-27T22:01:12.537Z,17.44
2019-06-27T22:03:41.118Z,17.34
2019-06-27T22:06:09.620Z,17.27
2019-06-27T22:08:38.140Z,17.37
2019-06-27T22:11:06.581Z,17.35
2019-06-27T22:13:35.206Z,17.30
2019-06-27T22:16:04.454Z,17.40
2019-06-27T22:18:33.006Z,16.80
2019-06-27T22:21:01.861Z,17.01
2019-06-27T22:23:30.426Z,17.47
2019-06-27T22:25:58.928Z,17.30
2019-06-27T22:28:27.650Z,17.29
2019-06-27T22:30:56.115Z,17.02
2019-06-27T22:33:24.648Z,16.73
2019-06-27T22:35:53.109Z,16.92
2019-06-27T22:38:39.561Z,16.72
2019-06-27T22:41:26.101Z,16.65
2019-06-27T22:44:12.123Z,16.53
2019-06-27T22:46:58.488Z,16.96
2019-06-27T22:49:26.516Z,16.67
2019-06-27T22:52:14.961Z,16.49
2019-06-27T22:54:45.244Z,16.96
2019-06-27T22:57:14.053Z,16.89
2019-06-27T22:59:42.589Z,16.62
2019-06-27T23:02:11.116Z,16.64
2019-06-27T23:04:39.737Z,16.66
2019-06-27T23:07:08.275Z,16.50
2019-06-27T23:09:36.827Z,16.40
2019-06-27T23:12:05.296Z,16.33
2019-06-27T23:14:33.820Z,16.76
2019-06-27T23:17:02.291Z,16.30
2019-06-27T23:19:30.822Z,16.75
2019-06-27T23:21:59.360Z,16.80
2019-06-27T23:24:27.870Z,16.70
2019-06-27T23:26:56.358Z,16.45
2019-06-27T23:29:24.900Z,16.34
2019-06-27T23:31:53.781Z,16.88
2019-06-27T23:34:22.307Z,16.30
2019-06-27T23:36:51.124Z,16.32
2019-06-27T23:39:19.630Z,15.87
2019-06-27T23:41:48.156Z,16.29
2019-06-27T23:44:16.701Z,16.32
2019-06-27T23:46:45.181Z,16.06
2019-06-27T23:49:13.701Z,16.41
2019-06-27T23:51:42.273Z,16.24
2019-06-27T23:54:10.822Z,16.02
2019-06-27T23:56:39.414Z,15.86
2019-06-27T23:59:07.951Z,15.93
